Time;durP1;ratioP1;P1;durP2;ratioP2;P2;SDS_P1;SDS_P2;PMS_P1;PMS_P2;Temp;Humidity;BMP_temperature;BMP_pressure;BME280_temperature;BME280_humidity;BME280_pressure;Samples;Min_cycle;Max_cycle;Signal;HPM_P1;HPM_P2
2022/03/20 00:00:44;;;;;;;45.20;29.23;;;2.70;99.90;;;;;;5071245;28;20042;-51
2022/03/20 00:03:11;;;;;;;49.88;30.70;;;2.70;99.90;;;;;;5072769;28;20425;-53
2022/03/20 00:05:39;;;;;;;49.75;30.98;;;2.70;99.90;;;;;;5072403;28;20074;-53
2022/03/20 00:08:09;;;;;;;50.90;32.10;;;2.70;99.90;;;;;;5066382;28;20039;-53
2022/03/20 00:10:49;;;;;;;54.17;32.70;;;2.70;99.90;;;;;;5052733;28;20347;-55
2022/03/20 00:13:18;;;;;;;51.75;29.67;;;2.60;99.90;;;;;;5052227;28;20041;-55
2022/03/20 00:15:48;;;;;;;53.70;31.67;;;2.60;99.90;;;;;;5052119;28;20021;-57
2022/03/20 00:18:16;;;;;;;46.70;30.13;;;2.60;99.90;;;;;;5052281;28;20028;-55
2022/03/20 00:20:45;;;;;;;48.25;29.98;;;2.60;99.90;;;;;;5052198;28;20029;-58
2022/03/20 00:23:12;;;;;;;53.72;31.38;;;2.60;99.90;;;;;;5060377;28;20028;-57
2022/03/20 00:25:39;;;;;;;50.67;31.00;;;2.60;99.90;;;;;;5071959;28;20020;-56
2022/03/20 00:28:06;;;;;;;47.63;30.50;;;2.60;99.90;;;;;;5072221;28;20012;-55
2022/03/20 00:30:32;;;;;;;55.72;30.48;;;2.60;99.90;;;;;;5071760;28;20146;-57
2022/03/20 00:32:58;;;;;;;50.58;32.42;;;2.60;99.90;;;;;;5071825;28;20486;-58
2022/03/20 00:35:24;;;;;;;58.63;33.10;;;2.60;99.90;;;;;;5071918;28;20109;-56
2022/03/20 00:37:50;;;;;;;56.75;34.60;;;2.60;99.90;;;;;;5068272;28;20476;-56
2022/03/20 00:40:15;;;;;;;51.42;32.05;;;2.60;99.90;;;;;;5051887;28;20028;-55
2022/03/20 00:42:41;;;;;;;55.17;32.35;;;2.50;99.90;;;;;;5051701;28;20476;-54
2022/03/20 00:45:07;;;;;;;55.00;31.40;;;2.50;99.90;;;;;;5051791;28;20029;-53
2022/03/20 00:47:33;;;;;;;51.53;31.80;;;2.40;99.90;;;;;;5051512;28;20017;-55
2022/03/20 00:49:59;;;;;;;52.75;30.80;;;2.40;99.90;;;;;;5051843;28;20043;-57
2022/03/20 00:52:25;;;;;;;55.25;31.27;;;2.40;99.90;;;;;;5053191;28;20496;-58
2022/03/20 00:54:50;;;;;;;56.90;33.75;;;2.40;99.90;;;;;;5071661;28;20418;-50
2022/03/20 00:57:16;;;;;;;52.38;32.92;;;2.40;99.90;;;;;;5071545;28;20020;-52
2022/03/20 00:59:42;;;;;;;49.78;30.73;;;2.30;99.90;;;;;;5070031;28;20029;-52
2022/03/20 01:02:08;;;;;;;46.05;29.90;;;2.30;99.90;;;;;;5071450;28;20028;-53
2022/03/20 01:04:35;;;;;;;47.45;30.15;;;2.30;99.90;;;;;;5052044;28;20292;-54
2022/03/20 01:07:02;;;;;;;48.25;32.47;;;2.30;99.90;;;;;;5051396;28;20094;-53
2022/03/20 01:09:31;;;;;;;50.60;32.83;;;2.30;99.90;;;;;;5051381;28;20029;-53
2022/03/20 01:11:58;;;;;;;47.72;30.42;;;2.30;99.90;;;;;;5051203;28;20484;-54
2022/03/20 01:14:25;;;;;;;55.15;33.13;;;2.20;99.90;;;;;;5051107;28;20049;-56
2022/03/20 01:16:57;;;;;;;51.55;29.65;;;2.10;99.90;;;;;;5050995;28;20033;-53
2022/03/20 01:19:24;;;;;;;46.87;29.90;;;2.20;99.90;;;;;;5052112;28;20037;-53
2022/03/20 01:21:51;;;;;;;50.30;32.17;;;2.10;99.90;;;;;;5050891;28;20256;-54
2022/03/20 01:24:16;;;;;;;46.60;28.73;;;2.10;99.90;;;;;;5051103;28;20048;-52
2022/03/20 01:26:42;;;;;;;51.03;32.33;;;2.10;99.90;;;;;;5050831;28;20013;-53
2022/03/20 01:29:08;;;;;;;53.45;30.48;;;2.10;99.90;;;;;;5050924;28;20029;-53
2022/03/20 01:31:34;;;;;;;49.35;29.23;;;2.10;99.90;;;;;;5050776;28;20024;-56
2022/03/20 01:34:01;;;;;;;52.55;31.63;;;2.10;99.90;;;;;;5050751;28;20041;-54
2022/03/20 01:36:27;;;;;;;48.42;31.88;;;2.10;99.90;;;;;;5050752;28;20029;-54
2022/03/20 01:38:54;;;;;;;46.35;30.27;;;2.10;99.90;;;;;;5051823;28;20029;-52
2022/03/20 01:41:20;;;;;;;51.80;32.00;;;2.10;99.90;;;;;;5050584;28;20029;-52
2022/03/20 01:43:59;;;;;;;50.00;30.48;;;2.10;99.90;;;;;;5050089;28;20058;-54
2022/03/20 01:46:26;;;;;;;52.05;29.38;;;2.00;99.90;;;;;;5050507;28;20028;-52
2022/03/20 01:48:52;;;;;;;48.40;31.70;;;2.00;99.90;;;;;;5050457;28;20021;-56
2022/03/20 01:54:06;;;;;;;48.28;32.03;;;1.90;99.90;;;;;;5063450;28;20060;-52
2022/03/20 01:56:33;;;;;;;49.30;31.58;;;1.90;99.90;;;;;;5070599;28;20025;-53
2022/03/20 01:59:01;;;;;;;47.13;29.98;;;1.90;99.90;;;;;;5070251;28;20054;-53
2022/03/20 02:01:27;;;;;;;50.65;31.90;;;2.00;99.90;;;;;;5070625;28;20028;-54
2022/03/20 02:03:53;;;;;;;47.45;29.80;;;1.90;99.90;;;;;;5070069;28;20652;-56
2022/03/20 02:06:19;;;;;;;45.70;30.02;;;1.90;99.90;;;;;;5070560;28;20021;-57
2022/03/20 02:08:45;;;;;;;50.50;30.40;;;1.90;99.90;;;;;;5065959;28;20009;-55
2022/03/20 02:11:10;;;;;;;51.22;31.77;;;1.90;99.90;;;;;;5050312;28;20211;-56
2022/03/20 02:13:36;;;;;;;44.03;28.67;;;1.80;99.90;;;;;;5049846;28;20041;-57
2022/03/20 02:16:02;;;;;;;49.63;31.35;;;1.80;99.90;;;;;;5050268;28;20446;-56
2022/03/20 02:18:28;;;;;;;49.28;29.42;;;1.80;99.90;;;;;;5050167;28;20548;-55
2022/03/20 02:20:55;;;;;;;40.33;27.17;;;1.80;99.90;;;;;;5050028;28;20035;-58
2022/03/20 02:23:20;;;;;;;48.28;30.15;;;1.80;99.90;;;;;;5053141;28;20409;-57
2022/03/20 02:25:51;;;;;;;45.95;30.13;;;1.70;99.90;;;;;;5070128;28;20056;-58
2022/03/20 02:28:17;;;;;;;46.47;30.55;;;1.70;99.90;;;;;;5068350;28;20040;-54
2022/03/20 02:30:45;;;;;;;45.67;30.10;;;1.70;99.90;;;;;;5068278;28;20581;-53
2022/03/20 02:33:10;;;;;;;51.83;29.08;;;1.70;99.90;;;;;;5068813;28;20024;-53
2022/03/20 02:35:36;;;;;;;42.33;28.60;;;1.70;99.90;;;;;;5070154;28;20031;-53
2022/03/20 02:38:02;;;;;;;42.45;26.98;;;1.70;99.90;;;;;;5070032;28;20048;-55
2022/03/20 02:40:28;;;;;;;43.42;27.88;;;1.60;99.90;;;;;;5068929;28;20433;-58
2022/03/20 02:42:54;;;;;;;45.03;30.98;;;1.60;99.90;;;;;;5069785;28;20028;-55
2022/03/20 02:45:22;;;;;;;45.22;27.35;;;1.50;99.90;;;;;;5064130;28;20029;-57
2022/03/20 02:47:49;;;;;;;45.47;29.55;;;1.60;99.90;;;;;;5049984;28;20064;-58
2022/03/20 02:50:20;;;;;;;47.58;29.65;;;1.50;99.90;;;;;;5049866;28;20067;-55
2022/03/20 02:52:53;;;;;;;47.05;28.02;;;1.50;99.90;;;;;;5049899;28;20027;-54
2022/03/20 02:55:45;;;;;;;45.95;29.15;;;1.50;99.90;;;;;;5054940;28;20053;-56
2022/03/20 02:58:14;;;;;;;43.85;27.75;;;1.50;99.90;;;;;;5053481;28;20029;-54
2022/03/20 03:00:41;;;;;;;42.08;27.20;;;1.50;99.90;;;;;;5053698;28;20500;-52
2022/03/20 03:03:10;;;;;;;41.90;26.40;;;1.50;99.90;;;;;;5053872;28;20039;-50
2022/03/20 03:05:37;;;;;;;45.95;29.98;;;1.50;99.90;;;;;;5053558;28;20040;-51
2022/03/20 03:10:55;;;;;;;48.47;27.50;;;1.50;99.90;;;;;;5073594;28;20074;-55
2022/03/20 03:13:21;;;;;;;;;;;1.50;99.90;;;;;;5072559;28;20051;-54
2022/03/20 03:15:47;;;;;;;42.65;26.77;;;1.40;99.90;;;;;;5073320;28;20261;-51
2022/03/20 03:18:13;;;;;;;49.35;27.48;;;1.40;99.90;;;;;;5073606;28;20021;-53
2022/03/20 03:20:38;;;;;;;40.83;26.10;;;1.40;99.90;;;;;;5073221;28;20029;-55
2022/03/20 03:23:05;;;;;;;44.35;26.23;;;1.30;99.90;;;;;;5062936;28;20476;-51
2022/03/20 03:25:36;;;;;;;41.35;25.20;;;1.30;99.90;;;;;;5053155;28;20465;-50
2022/03/20 03:28:02;;;;;;;39.53;24.52;;;1.30;99.90;;;;;;5053321;28;20060;-52
2022/03/20 03:30:28;;;;;;;42.63;26.27;;;1.30;99.90;;;;;;5053339;28;20507;-52
2022/03/20 03:32:56;;;;;;;35.95;24.42;;;1.30;99.90;;;;;;5052954;28;20149;-53
2022/03/20 03:38:06;;;;;;;39.85;25.33;;;1.30;99.90;;;;;;5065827;28;20079;-50
2022/03/20 03:40:31;;;;;;;38.60;25.15;;;1.30;99.90;;;;;;5073064;28;20086;-53
2022/03/20 03:42:58;;;;;;;40.88;24.55;;;1.40;99.90;;;;;;5072777;28;20198;-53
2022/03/20 03:45:24;;;;;;;45.13;26.48;;;1.40;99.90;;;;;;5072805;28;20119;-51
2022/03/20 03:47:51;;;;;;;39.50;25.55;;;1.40;99.90;;;;;;5072776;28;20400;-50
2022/03/20 03:50:18;;;;;;;37.95;23.92;;;1.40;99.90;;;;;;5072878;28;20104;-55
2022/03/20 03:52:44;;;;;;;40.13;25.80;;;1.30;99.90;;;;;;5060607;28;20024;-57
2022/03/20 03:55:10;;;;;;;38.00;24.38;;;1.40;99.90;;;;;;5052645;28;20476;-53
2022/03/20 03:57:36;;;;;;;37.33;25.20;;;1.40;99.90;;;;;;5052605;28;20495;-55
2022/03/20 04:00:02;;;;;;;36.25;24.45;;;1.40;99.90;;;;;;5052552;28;20028;-56
2022/03/20 04:02:29;;;;;;;39.25;24.25;;;1.40;99.90;;;;;;5052726;28;20056;-55
2022/03/20 04:04:55;;;;;;;36.38;25.00;;;1.40;99.90;;;;;;5051749;28;20373;-56
2022/03/20 04:07:21;;;;;;;36.20;24.20;;;1.40;99.90;;;;;;5062986;28;20085;-53
2022/03/20 04:09:48;;;;;;;44.67;23.52;;;1.40;99.90;;;;;;5072183;28;20479;-57
2022/03/20 04:12:14;;;;;;;36.40;22.90;;;1.40;99.90;;;;;;5072488;28;20487;-57
2022/03/20 04:14:43;;;;;;;31.88;22.98;;;1.40;99.90;;;;;;5072117;28;20075;-55
2022/03/20 04:17:10;;;;;;;38.72;23.60;;;1.40;99.90;;;;;;5072257;28;20078;-53
2022/03/20 04:19:36;;;;;;;37.10;23.02;;;1.40;99.90;;;;;;5072124;28;20025;-52
2022/03/20 04:22:02;;;;;;;39.28;24.45;;;1.40;99.90;;;;;;5062166;28;20139;-53
2022/03/20 04:24:31;;;;;;;39.90;23.50;;;1.30;99.90;;;;;;5052074;28;20113;-52
2022/03/20 04:26:58;;;;;;;38.10;24.38;;;1.30;99.90;;;;;;5050659;28;20021;-52
2022/03/20 04:29:25;;;;;;;36.45;24.20;;;1.30;99.90;;;;;;5052208;28;20480;-56
2022/03/20 04:31:51;;;;;;;38.35;23.33;;;1.30;99.90;;;;;;5053066;28;20053;-53
2022/03/20 04:34:17;;;;;;;34.88;22.27;;;1.30;99.90;;;;;;5051973;28;20032;-54
2022/03/20 04:36:43;;;;;;;35.88;23.67;;;1.30;99.90;;;;;;5051630;28;20025;-54
2022/03/20 04:39:08;;;;;;;36.70;24.48;;;1.20;99.90;;;;;;5051895;28;20021;-54
2022/03/20 04:41:35;;;;;;;34.92;22.33;;;1.20;99.90;;;;;;5052128;28;20381;-56
2022/03/20 04:44:01;;;;;;;36.35;23.77;;;1.30;99.90;;;;;;5066113;28;20294;-55
2022/03/20 04:46:27;;;;;;;38.70;22.50;;;1.20;99.90;;;;;;5071803;28;20017;-54
2022/03/20 04:59:50;;;;;;;40.92;23.45;;;1.10;99.90;;;;;;5057620;28;20040;-54
2022/03/20 05:02:16;;;;;;;33.72;22.33;;;1.10;99.90;;;;;;5051340;28;20025;-54
2022/03/20 05:04:42;;;;;;;31.13;22.00;;;1.10;99.90;;;;;;5051458;28;20032;-57
2022/03/20 05:07:08;;;;;;;34.85;22.08;;;1.20;99.90;;;;;;5051257;28;20507;-55
2022/03/20 05:15:08;;;;;;;35.53;23.02;;;1.20;99.90;;;;;;5053691;28;20048;-57
2022/03/20 05:17:34;;;;;;;36.92;21.77;;;1.10;99.90;;;;;;5070344;28;20085;-54
2022/03/20 05:20:00;;;;;;;32.28;20.95;;;1.10;99.90;;;;;;5071158;28;20437;-52
2022/03/20 05:22:26;;;;;;;36.20;20.90;;;1.10;99.90;;;;;;5070926;28;20119;-53
2022/03/20 05:24:52;;;;;;;35.00;22.08;;;1.20;99.90;;;;;;5070839;28;20083;-50
2022/03/20 05:27:17;;;;;;;37.45;20.88;;;1.20;99.90;;;;;;5071036;28;20023;-54
2022/03/20 05:29:43;;;;;;;30.38;21.23;;;1.20;99.90;;;;;;5069486;28;20024;-54
2022/03/20 05:32:09;;;;;;;29.80;20.17;;;1.20;99.90;;;;;;5051219;28;20029;-54
2022/03/20 05:34:35;;;;;;;37.58;21.60;;;1.20;99.90;;;;;;5050963;28;20052;-56
2022/03/20 05:37:02;;;;;;;26.92;19.83;;;1.20;99.90;;;;;;5050757;28;20560;-50
2022/03/20 05:39:28;;;;;;;31.80;21.25;;;1.20;99.90;;;;;;5050841;28;20112;-57
2022/03/20 05:41:54;;;;;;;31.67;20.38;;;1.20;99.90;;;;;;5050404;28;20029;-54
2022/03/20 05:44:23;;;;;;;31.98;20.02;;;1.20;99.90;;;;;;5050604;28;20033;-55
2022/03/20 05:46:50;;;;;;;32.55;20.42;;;1.20;99.90;;;;;;5070636;28;20028;-57
2022/03/20 05:49:17;;;;;;;31.75;20.42;;;1.30;99.90;;;;;;5070744;28;20082;-58
2022/03/20 05:51:44;;;;;;;30.25;19.83;;;1.30;99.90;;;;;;5070480;28;20027;-52
2022/03/20 05:54:10;;;;;;;38.83;20.65;;;1.30;99.90;;;;;;5070518;28;20036;-55
2022/03/20 05:59:20;;;;;;;32.90;20.13;;;1.50;99.90;;;;;;5068408;28;20185;-55
2022/03/20 06:01:46;;;;;;;29.55;20.85;;;1.50;99.90;;;;;;5050353;28;20053;-53
2022/03/20 06:04:13;;;;;;;34.95;20.80;;;1.60;99.90;;;;;;5050414;28;20029;-56
2022/03/20 06:06:42;;;;;;;31.25;18.98;;;1.70;99.90;;;;;;5050208;28;20016;-56
2022/03/20 06:09:08;;;;;;;31.52;19.58;;;1.70;99.90;;;;;;5050265;28;20593;-56
2022/03/20 06:11:34;;;;;;;32.50;20.13;;;1.80;99.90;;;;;;5050282;28;20017;-58
2022/03/20 06:14:03;;;;;;;35.30;21.30;;;1.90;99.90;;;;;;5051414;28;20045;-57
2022/03/20 06:16:30;;;;;;;30.17;19.73;;;1.90;99.90;;;;;;5070398;28;20025;-57
2022/03/20 06:18:56;;;;;;;31.77;20.30;;;2.00;99.90;;;;;;5070108;28;20078;-55
2022/03/20 06:21:25;;;;;;;30.17;19.23;;;2.10;99.90;;;;;;5070240;28;20017;-57
2022/03/20 06:23:55;;;;;;;28.20;18.88;;;2.10;99.90;;;;;;5070031;28;20064;-56
2022/03/20 06:26:23;;;;;;;36.33;21.00;;;2.20;99.90;;;;;;5070241;28;20487;-57
2022/03/20 06:28:49;;;;;;;33.80;18.75;;;2.20;99.90;;;;;;5071965;28;20021;-56
2022/03/20 06:31:16;;;;;;;27.88;19.48;;;2.30;99.90;;;;;;5075264;28;20108;-56
2022/03/20 06:33:45;;;;;;;27.27;18.98;;;2.30;99.90;;;;;;5076798;28;20059;-55
2022/03/20 06:36:11;;;;;;;30.92;21.00;;;2.40;99.90;;;;;;5076823;28;20029;-54
2022/03/20 06:38:38;;;;;;;28.17;18.60;;;2.40;99.90;;;;;;5075214;28;20115;-56
2022/03/20 06:41:06;;;;;;;31.40;19.30;;;2.40;99.90;;;;;;5075174;28;20024;-55
2022/03/20 06:43:31;;;;;;;27.70;19.13;;;2.50;99.90;;;;;;5075058;28;20059;-55
2022/03/20 06:45:57;;;;;;;32.60;19.23;;;2.50;99.90;;;;;;5058745;28;20460;-51
2022/03/20 06:48:24;;;;;;;33.08;19.33;;;2.60;99.90;;;;;;5057347;28;20083;-52
2022/03/20 06:50:50;;;;;;;29.35;18.60;;;2.60;99.90;;;;;;5056681;28;20021;-51
2022/03/20 06:53:17;;;;;;;29.95;19.23;;;2.70;99.90;;;;;;5056923;28;20025;-53
2022/03/20 06:55:44;;;;;;;29.58;19.52;;;2.80;99.90;;;;;;5056560;28;20556;-56
2022/03/20 06:58:10;;;;;;;32.60;20.73;;;2.80;99.90;;;;;;5057122;28;20488;-55
2022/03/20 07:00:36;;;;;;;28.60;19.60;;;2.90;99.90;;;;;;5074208;28;20035;-52
2022/03/20 07:03:03;;;;;;;63.58;23.55;;;3.00;99.90;;;;;;5060695;28;20037;-53
2022/03/20 07:05:30;;;;;;;28.80;20.08;;;3.00;99.90;;;;;;5056552;28;20134;-53
2022/03/20 07:07:56;;;;;;;30.27;19.45;;;3.10;99.60;;;;;;5057469;28;20025;-57
2022/03/20 07:10:23;;;;;;;32.88;18.63;;;3.20;99.90;;;;;;5057452;28;20054;-54
2022/03/20 07:13:48;;;;;;;28.27;19.17;;;3.20;99.50;;;;;;5057493;28;20044;-53
2022/03/20 07:15:39;;;;;;;36.28;20.23;;;3.30;99.50;;;;;;5057304;28;20029;-53
2022/03/20 07:18:05;;;;;;;35.83;22.00;;;3.40;99.10;;;;;;5057548;28;20537;-55
2022/03/20 07:20:31;;;;;;;28.88;19.70;;;3.50;98.90;;;;;;5077687;28;20037;-59
2022/03/20 07:23:00;;;;;;;24.58;17.50;;;3.60;98.50;;;;;;5077506;28;20055;-58
2022/03/20 07:30:56;;;;;;;33.22;21.63;;;3.80;98.00;;;;;;5075283;28;20042;-58
2022/03/20 07:33:23;;;;;;;26.20;18.23;;;3.90;97.30;;;;;;5057472;28;20021;-58
2022/03/20 07:35:49;;;;;;;30.63;19.75;;;4.00;97.30;;;;;;5057368;28;20021;-58
2022/03/20 07:38:15;;;;;;;30.10;19.70;;;4.00;97.60;;;;;;5057419;28;20064;-55
2022/03/20 07:40:41;;;;;;;25.70;18.00;;;4.10;97.30;;;;;;5054017;28;20082;-55
2022/03/20 07:43:07;;;;;;;25.73;18.92;;;4.20;97.10;;;;;;5054342;28;20178;-57
2022/03/20 07:45:32;;;;;;;29.63;18.50;;;4.30;96.80;;;;;;5055104;28;20052;-58
2022/03/20 07:47:58;;;;;;;25.83;17.63;;;4.40;96.80;;;;;;5074177;28;20028;-57
2022/03/20 07:50:24;;;;;;;27.98;18.75;;;4.60;96.00;;;;;;5074268;28;20539;-59
2022/03/20 07:52:50;;;;;;;27.88;19.08;;;4.70;95.90;;;;;;5073961;28;20604;-59
2022/03/20 07:55:17;;;;;;;27.02;18.60;;;4.80;95.30;;;;;;5073966;28;20056;-58
2022/03/20 07:57:43;;;;;;;29.75;19.92;;;4.90;95.10;;;;;;5071676;28;20032;-58
2022/03/20 08:00:09;;;;;;;30.52;18.45;;;5.00;94.60;;;;;;5052774;28;20124;-58
2022/03/20 08:02:36;;;;;;;25.67;18.55;;;5.20;94.60;;;;;;5053293;28;20051;-53
2022/03/20 08:05:01;;;;;;;28.50;19.10;;;5.30;94.90;;;;;;5053704;28;20040;-58
2022/03/20 08:07:27;;;;;;;29.65;17.58;;;5.40;93.90;;;;;;5073117;28;20032;-57
2022/03/20 08:09:53;;;;;;;27.95;19.35;;;5.50;93.50;;;;;;5073526;28;20031;-58
2022/03/20 08:12:18;;;;;;;34.35;17.85;;;5.60;93.30;;;;;;5073687;28;20029;-54
2022/03/20 08:14:44;;;;;;;31.33;18.33;;;5.70;92.60;;;;;;5073372;28;20064;-59
2022/03/20 08:17:10;;;;;;;27.98;17.17;;;5.80;92.60;;;;;;5073197;28;20033;-56
2022/03/20 08:19:36;;;;;;;30.55;18.42;;;5.90;92.60;;;;;;5073304;28;20537;-58
2022/03/20 08:22:05;;;;;;;26.35;17.27;;;6.00;91.90;;;;;;5059252;28;20041;-59
2022/03/20 08:24:31;;;;;;;27.65;18.00;;;6.10;91.20;;;;;;5053199;28;20032;-59
2022/03/20 08:26:57;;;;;;;28.65;18.60;;;6.20;90.70;;;;;;5053377;28;20025;-56
2022/03/20 08:29:23;;;;;;;25.63;17.52;;;6.40;90.70;;;;;;5053413;28;20021;-58
2022/03/20 08:31:49;;;;;;;29.08;17.42;;;6.50;90.80;;;;;;5052912;28;20467;-59
2022/03/20 08:34:16;;;;;;;24.27;17.75;;;6.60;89.30;;;;;;5052075;28;20119;-58
2022/03/20 08:36:44;;;;;;;28.30;20.02;;;6.70;88.10;;;;;;5054962;28;20033;-57
2022/03/20 08:39:10;;;;;;;29.40;17.42;;;6.80;88.70;;;;;;5061017;28;20364;-53
2022/03/20 08:41:36;;;;;;;28.75;18.60;;;6.90;87.60;;;;;;5017646;28;20418;-58
2022/03/20 08:44:05;;;;;;;28.15;17.92;;;7.10;88.20;;;;;;5019380;28;20032;-55
2022/03/20 08:46:31;;;;;;;26.75;18.75;;;7.20;86.40;;;;;;5017157;28;20045;-59
2022/03/20 08:48:57;;;;;;;23.38;16.67;;;7.40;86.30;;;;;;5031654;28;20025;-59
2022/03/20 08:51:23;;;;;;;26.20;17.10;;;7.50;84.10;;;;;;5032774;28;20102;-59
2022/03/20 08:53:50;;;;;;;27.00;18.40;;;7.70;83.90;;;;;;5054247;28;20029;-59
2022/03/20 08:56:16;;;;;;;24.48;17.35;;;7.80;81.70;;;;;;5055681;28;20040;-58
2022/03/20 08:58:41;;;;;;;26.73;19.42;;;7.90;81.60;;;;;;5057104;28;20035;-59
2022/03/20 09:01:07;;;;;;;26.50;17.38;;;8.00;79.30;;;;;;5048546;28;20029;-58
2022/03/20 09:03:33;;;;;;;25.75;19.33;;;8.10;80.20;;;;;;5033430;28;20464;-59
2022/03/20 09:05:59;;;;;;;28.95;17.15;;;8.20;79.00;;;;;;5037720;28;20055;-57
2022/03/20 09:08:24;;;;;;;30.90;18.27;;;8.40;78.20;;;;;;5054115;28;20518;-57
2022/03/20 09:10:51;;;;;;;28.60;21.23;;;8.40;75.10;;;;;;5051061;28;20043;-58
2022/03/20 09:13:17;;;;;;;22.55;17.13;;;8.50;76.70;;;;;;5040955;28;20494;-59
2022/03/20 09:15:43;;;;;;;23.02;18.33;;;8.60;72.60;;;;;;5041029;28;20116;-58
2022/03/20 09:20:53;;;;;;;25.38;16.73;;;8.80;70.50;;;;;;5040974;28;20052;-57
2022/03/20 09:23:19;;;;;;;27.92;19.25;;;8.80;70.20;;;;;;5041913;28;20083;-56
2022/03/20 09:25:45;;;;;;;23.25;16.40;;;8.90;68.70;;;;;;5041409;28;20039;-57
2022/03/20 09:28:12;;;;;;;23.80;17.63;;;9.00;68.60;;;;;;5040804;28;20033;-58
2022/03/20 09:30:39;;;;;;;26.45;17.90;;;9.30;70.40;;;;;;5040081;28;20499;-59
2022/03/20 09:33:06;;;;;;;28.52;17.10;;;9.60;67.50;;;;;;5041116;28;20399;-58
2022/03/20 09:35:33;;;;;;;32.40;18.23;;;9.70;69.10;;;;;;5041626;28;20116;-58
2022/03/20 09:37:59;;;;;;;28.70;17.80;;;9.80;67.40;;;;;;5044523;28;20090;-59
2022/03/20 09:40:24;;;;;;;23.80;16.80;;;9.90;66.20;;;;;;5061530;28;20066;-58
2022/03/20 09:42:51;;;;;;;26.02;17.13;;;10.10;66.30;;;;;;5061072;28;20060;-59
2022/03/20 09:45:18;;;;;;;30.33;18.08;;;10.20;65.30;;;;;;5060622;28;20072;-59
2022/03/20 09:47:45;;;;;;;23.73;17.27;;;10.40;64.40;;;;;;5061158;28;20025;-59
2022/03/20 09:50:13;;;;;;;25.75;17.67;;;10.40;63.00;;;;;;5041305;28;20037;-56
2022/03/20 09:52:39;;;;;;;24.42;16.27;;;10.60;63.10;;;;;;5040899;28;20028;-56
2022/03/20 09:55:07;;;;;;;24.13;16.13;;;10.60;60.80;;;;;;5040820;28;20072;-60
2022/03/20 09:57:33;;;;;;;20.27;15.27;;;10.60;60.90;;;;;;5040867;28;20468;-57
2022/03/20 10:00:04;;;;;;;21.75;15.18;;;10.80;61.10;;;;;;5040416;28;20032;-58
2022/03/20 10:02:31;;;;;;;31.15;17.20;;;10.90;60.10;;;;;;5039778;28;20029;-59
2022/03/20 10:04:59;;;;;;;24.42;16.17;;;11.10;58.20;;;;;;5040196;28;20416;-57
2022/03/20 10:07:40;;;;;;;21.48;17.05;;;11.10;57.60;;;;;;5041756;28;20021;-58
2022/03/20 10:10:28;;;;;;;24.80;15.43;;;11.20;59.70;;;;;;5050562;28;20477;-58
2022/03/20 10:12:59;;;;;;;22.73;16.42;;;11.20;56.30;;;;;;5050915;28;20044;-58
2022/03/20 10:15:26;;;;;;;27.08;15.02;;;11.00;55.10;;;;;;5061596;28;20121;-59
2022/03/20 10:18:08;;;;;;;23.92;15.10;;;11.00;55.50;;;;;;5069118;28;20040;-59
2022/03/20 10:20:41;;;;;;;33.63;16.10;;;11.40;57.70;;;;;;5062960;28;20037;-59
2022/03/20 10:23:31;;;;;;;26.73;19.75;;;11.90;57.20;;;;;;5051897;28;20029;-65
2022/03/20 10:25:58;;;;;;;27.40;17.77;;;11.70;53.60;;;;;;5049562;28;20460;-60
2022/03/20 10:28:32;;;;;;;22.98;16.35;;;11.80;52.60;;;;;;5050084;28;20064;-60
2022/03/20 10:30:59;;;;;;;22.88;14.93;;;11.80;50.50;;;;;;5049944;28;20523;-59
2022/03/20 10:33:25;;;;;;;22.63;15.35;;;11.90;53.50;;;;;;5051342;28;20025;-59
2022/03/20 10:36:09;;;;;;;29.40;16.73;;;11.80;50.20;;;;;;5050955;28;20036;-60
2022/03/20 10:38:36;;;;;;;19.83;14.90;;;12.20;50.40;;;;;;5051089;28;20352;-59
2022/03/20 10:41:15;;;;;;;23.35;15.40;;;12.10;50.30;;;;;;5052444;28;20032;-60
2022/03/20 10:43:42;;;;;;;20.55;15.45;;;12.30;52.10;;;;;;5071048;28;20517;-60
2022/03/20 10:46:08;;;;;;;22.05;15.07;;;12.80;49.90;;;;;;5070804;28;20025;-60
2022/03/20 10:48:34;;;;;;;21.27;14.13;;;12.80;50.30;;;;;;5071193;28;20027;-59
2022/03/20 10:51:00;;;;;;;20.08;13.82;;;13.20;51.10;;;;;;5071036;28;20388;-60
2022/03/20 10:53:26;;;;;;;22.30;14.38;;;13.40;48.10;;;;;;5071167;28;20078;-59
2022/03/20 10:56:06;;;;;;;20.65;15.57;;;13.70;49.20;;;;;;5066185;28;20028;-58
2022/03/20 10:58:36;;;;;;;20.27;13.55;;;14.40;48.20;;;;;;5050731;28;20033;-59
2022/03/20 11:01:02;;;;;;;21.40;14.50;;;14.10;43.90;;;;;;5052069;28;20040;-59
2022/03/20 11:03:29;;;;;;;18.73;13.68;;;15.50;46.00;;;;;;5049760;28;20029;-58
2022/03/20 11:05:57;;;;;;;19.20;14.23;;;16.50;42.00;;;;;;5066845;28;20043;-57
2022/03/20 11:08:25;;;;;;;16.77;13.10;;;17.20;38.20;;;;;;5071019;28;20475;-58
2022/03/20 11:10:53;;;;;;;14.95;12.50;;;17.60;37.10;;;;;;5040516;28;20039;-59
2022/03/20 11:13:22;;;;;;;16.40;12.75;;;16.70;36.10;;;;;;5026194;28;20104;-59
2022/03/20 11:15:49;;;;;;;19.38;13.25;;;16.90;36.30;;;;;;5020406;28;20178;-60
2022/03/20 11:18:15;;;;;;;18.85;13.50;;;18.00;36.70;;;;;;5025899;28;20154;-58
2022/03/20 11:20:46;;;;;;;19.85;13.63;;;18.10;34.20;;;;;;5022482;28;20024;-59
2022/03/20 11:23:14;;;;;;;20.40;14.20;;;18.50;33.10;;;;;;5021577;28;20601;-56
2022/03/20 11:25:43;;;;;;;15.85;12.90;;;18.50;34.30;;;;;;5018612;28;20491;-56
2022/03/20 11:28:14;;;;;;;17.15;13.75;;;18.70;34.70;;;;;;5018868;28;20048;-59
2022/03/20 11:30:44;;;;;;;17.65;13.40;;;19.90;34.10;;;;;;5022231;28;20681;-59
2022/03/20 11:33:10;;;;;;;16.40;13.40;;;19.50;33.30;;;;;;5020088;28;20115;-59
2022/03/20 11:35:37;;;;;;;16.92;12.00;;;19.30;33.20;;;;;;5022025;28;20065;-59
2022/03/20 11:38:20;;;;;;;18.90;13.05;;;18.50;32.20;;;;;;5046354;28;20045;-59
2022/03/20 11:41:23;;;;;;;17.23;13.23;;;18.40;32.50;;;;;;5043210;28;20037;-58
2022/03/20 11:44:15;;;;;;;19.30;13.00;;;19.50;30.50;;;;;;5059322;28;20056;-59
2022/03/20 11:46:43;;;;;;;19.75;12.50;;;19.50;31.10;;;;;;5043414;28;20091;-59
2022/03/20 11:49:17;;;;;;;14.18;11.27;;;19.50;30.50;;;;;;5043647;28;20025;-59
2022/03/20 11:51:51;;;;;;;23.17;13.13;;;20.60;30.90;;;;;;5043440;28;20078;-59
2022/03/20 11:54:18;;;;;;;13.63;11.65;;;20.70;30.80;;;;;;5042915;28;20033;-59
2022/03/20 11:56:43;;;;;;;15.23;12.00;;;21.80;29.50;;;;;;5044728;28;20503;-59
2022/03/20 11:59:43;;;;;;;13.75;12.15;;;20.70;29.40;;;;;;5043691;28;20036;-59
2022/03/20 12:02:14;;;;;;;15.02;11.55;;;20.20;30.10;;;;;;5043721;28;20025;-58
2022/03/20 12:04:47;;;;;;;15.65;12.35;;;20.70;29.70;;;;;;5042940;28;20029;-59
2022/03/20 12:07:31;;;;;;;18.63;11.63;;;21.20;29.50;;;;;;5043376;28;20036;-60
2022/03/20 12:10:10;;;;;;;15.27;11.32;;;20.60;29.70;;;;;;5042155;28;20523;-59
2022/03/20 12:13:11;;;;;;;17.77;11.50;;;21.60;29.70;;;;;;5042426;28;20033;-58
2022/03/20 12:15:44;;;;;;;20.20;11.98;;;21.40;28.50;;;;;;5041961;28;20154;-59
2022/03/20 12:18:12;;;;;;;16.77;10.90;;;21.40;28.90;;;;;;5043650;28;20068;-59
2022/03/20 12:20:53;;;;;;;13.45;10.95;;;20.80;28.50;;;;;;5044093;28;20022;-59
2022/03/20 12:23:44;;;;;;;14.88;10.55;;;19.90;28.90;;;;;;5053381;28;20025;-58
2022/03/20 12:26:36;;;;;;;14.02;10.43;;;19.50;29.60;;;;;;5065807;28;20040;-58
2022/03/20 12:29:37;;;;;;;18.65;11.25;;;19.50;30.00;;;;;;5052680;28;20376;-59
2022/03/20 12:32:12;;;;;;;12.32;10.10;;;19.80;29.40;;;;;;5053286;28;20033;-59
2022/03/20 12:34:39;;;;;;;15.38;11.32;;;19.80;28.30;;;;;;5053046;28;20067;-59
2022/03/20 12:37:29;;;;;;;12.88;9.30;;;19.70;28.20;;;;;;5053184;28;20476;-59
2022/03/20 12:40:04;;;;;;;17.95;10.65;;;20.80;29.30;;;;;;5052994;28;20028;-59
2022/03/20 12:42:39;;;;;;;16.52;10.15;;;21.40;29.40;;;;;;5054210;28;20035;-59
2022/03/20 12:45:08;;;;;;;18.17;9.75;;;20.70;28.30;;;;;;5051541;28;20021;-59
2022/03/20 12:47:34;;;;;;;12.38;9.77;;;20.50;28.20;;;;;;5052774;28;20049;-59
2022/03/20 12:50:10;;;;;;;10.98;9.15;;;20.80;28.60;;;;;;5052620;28;20345;-59
2022/03/20 12:52:38;;;;;;;15.70;10.15;;;20.60;28.10;;;;;;5050748;28;20020;-59
2022/03/20 12:55:07;;;;;;;11.25;9.05;;;20.10;30.00;;;;;;5062733;28;20036;-59
2022/03/20 12:57:58;;;;;;;12.70;10.48;;;19.50;28.60;;;;;;5072795;28;20103;-59
2022/03/20 13:00:36;;;;;;;20.10;10.32;;;19.20;29.00;;;;;;5072518;28;20085;-59
2022/03/20 13:03:10;;;;;;;12.77;9.52;;;19.50;29.90;;;;;;5066730;28;20504;-59
2022/03/20 13:05:50;;;;;;;11.20;9.77;;;20.10;28.70;;;;;;5064976;28;20111;-59
2022/03/20 13:08:23;;;;;;;15.95;9.50;;;20.20;28.40;;;;;;5070665;28;20028;-59
2022/03/20 13:10:51;;;;;;;11.70;9.05;;;20.20;28.90;;;;;;5052654;28;20021;-59
2022/03/20 13:13:20;;;;;;;14.27;10.23;;;20.30;29.10;;;;;;5052476;28;20438;-59
2022/03/20 13:15:47;;;;;;;10.65;8.77;;;20.80;28.80;;;;;;5055801;28;20034;-59
2022/03/20 13:18:12;;;;;;;11.88;9.00;;;20.60;27.80;;;;;;5072157;28;20151;-59